createdAt,value
2023-02-17T00:02:16.279Z,36.25
2023-02-17T00:04:48.752Z,35.97
2023-02-17T00:07:21.507Z,33.40
2023-02-17T00:09:53.947Z,36.60
2023-02-17T00:12:27.687Z,39.00
2023-02-17T00:15:00.246Z,37.25
2023-02-17T00:17:33.356Z,36.60
2023-02-17T00:20:06.615Z,34.88
2023-02-17T00:22:39.490Z,37.22
2023-02-17T00:25:11.942Z,36.25
2023-02-17T00:27:44.769Z,36.88
2023-02-17T00:30:17.918Z,35.70
2023-02-17T00:32:50.687Z,34.70
2023-02-17T00:35:23.618Z,33.78
2023-02-17T00:37:56.491Z,34.47
2023-02-17T00:40:29.182Z,35.50
2023-02-17T00:43:02.251Z,35.63
2023-02-17T00:45:34.742Z,34.45
2023-02-17T00:48:07.585Z,35.35
2023-02-17T00:50:40.115Z,36.55
2023-02-17T00:53:12.961Z,34.17
2023-02-17T00:55:45.453Z,35.63
2023-02-17T00:58:18.451Z,36.08
2023-02-17T01:00:51.040Z,34.25
2023-02-17T01:03:24.323Z,35.58
2023-02-17T01:05:57.613Z,32.85
2023-02-17T01:08:30.473Z,35.92
2023-02-17T01:11:03.256Z,33.72
2023-02-17T01:13:35.991Z,34.10
2023-02-17T01:16:18.067Z,35.20
2023-02-17T01:18:51.285Z,34.42
2023-02-17T01:21:26.471Z,34.20
2023-02-17T01:24:01.989Z,33.20
2023-02-17T01:26:36.533Z,33.63
2023-02-17T01:29:09.527Z,35.00
2023-02-17T01:31:42.211Z,33.88
2023-02-17T01:34:15.308Z,33.83
2023-02-17T01:36:47.862Z,33.28
2023-02-17T01:39:20.781Z,34.92
2023-02-17T01:41:53.669Z,32.13
2023-02-17T01:44:26.874Z,31.10
2023-02-17T01:46:59.385Z,31.45
2023-02-17T01:49:36.721Z,30.20
2023-02-17T01:52:19.113Z,32.10
2023-02-17T01:55:02.443Z,30.77
2023-02-17T01:57:38.763Z,31.08
2023-02-17T02:00:13.579Z,32.95
2023-02-17T02:02:49.040Z,29.95
2023-02-17T02:05:22.425Z,30.10
2023-02-17T02:07:55.415Z,29.73
2023-02-17T02:10:28.210Z,29.98
2023-02-17T02:13:01.066Z,29.20
2023-02-17T02:16:18.939Z,29.50
2023-02-17T02:18:57.315Z,27.70
2023-02-17T02:22:18.470Z,30.60
2023-02-17T02:25:35.219Z,28.42
2023-02-17T02:28:35.599Z,28.30
2023-02-17T02:31:10.966Z,27.58
2023-02-17T02:33:52.192Z,28.95
2023-02-17T02:36:29.907Z,28.67
2023-02-17T02:39:24.321Z,29.65
2023-02-17T02:42:02.154Z,28.25
2023-02-17T02:44:34.896Z,29.75
2023-02-17T02:47:44.448Z,31.35
2023-02-17T02:50:39.944Z,28.45
2023-02-17T02:53:31.684Z,27.48
2023-02-17T02:56:41.534Z,28.65
2023-02-17T02:59:19.587Z,27.40
2023-02-17T03:02:06.969Z,27.83
2023-02-17T03:04:56.464Z,30.02
2023-02-17T03:07:35.024Z,30.08
2023-02-17T03:10:08.550Z,29.35
2023-02-17T03:12:41.391Z,30.52
2023-02-17T03:15:29.932Z,30.83
2023-02-17T03:18:03.566Z,28.98
2023-02-17T03:20:49.062Z,29.85
2023-02-17T03:23:22.055Z,29.38
2023-02-17T03:25:54.605Z,28.27
2023-02-17T03:28:27.524Z,30.15
2023-02-17T03:31:00.064Z,31.15
2023-02-17T03:33:32.873Z,29.70
2023-02-17T03:36:05.982Z,30.45
2023-02-17T03:38:38.977Z,30.55
2023-02-17T03:41:11.733Z,30.13
2023-02-17T03:43:44.571Z,31.02
2023-02-17T03:46:17.983Z,31.75
2023-02-17T03:48:51.056Z,30.40
2023-02-17T03:51:24.649Z,32.13
2023-02-17T03:53:57.477Z,32.88
2023-02-17T03:56:30.204Z,31.83
2023-02-17T03:59:04.079Z,30.58
2023-02-17T04:01:36.630Z,30.90
2023-02-17T04:04:09.737Z,31.65
2023-02-17T04:06:42.436Z,32.10
2023-02-17T04:09:15.332Z,31.88
2023-02-17T04:11:47.923Z,31.70
2023-02-17T04:14:20.715Z,31.45
2023-02-17T04:16:53.329Z,31.00
2023-02-17T04:19:26.337Z,32.38
2023-02-17T04:21:58.890Z,30.88
2023-02-17T04:24:31.592Z,31.30
2023-02-17T04:27:07.070Z,29.92
2023-02-17T04:29:39.792Z,30.98
2023-02-17T04:32:12.420Z,30.15
2023-02-17T04:34:45.089Z,30.48
2023-02-17T04:37:17.481Z,28.58
2023-02-17T04:39:50.182Z,30.08
2023-02-17T04:42:22.554Z,28.30
2023-02-17T04:44:55.417Z,31.20
2023-02-17T04:47:28.285Z,30.25
2023-02-17T04:50:00.967Z,30.50
2023-02-17T04:52:33.470Z,29.20
2023-02-17T04:55:07.156Z,29.75
2023-02-17T04:57:39.756Z,28.30
2023-02-17T05:00:13.374Z,30.00
2023-02-17T05:02:45.892Z,28.88
2023-02-17T05:05:19.067Z,30.83
2023-02-17T05:07:51.517Z,29.77
2023-02-17T05:10:50.206Z,28.70
2023-02-17T05:13:22.664Z,29.63
2023-02-17T05:15:55.382Z,29.38
2023-02-17T05:18:27.975Z,28.77
2023-02-17T05:21:00.617Z,29.55
2023-02-17T05:23:33.023Z,27.00
2023-02-17T05:26:05.869Z,28.27
2023-02-17T05:28:38.721Z,28.58
2023-02-17T05:31:11.551Z,27.52
2023-02-17T05:33:44.848Z,28.05
2023-02-17T05:36:17.628Z,28.23
2023-02-17T05:38:51.232Z,28.75
2023-02-17T05:41:23.917Z,28.58
2023-02-17T05:43:56.482Z,28.77
2023-02-17T05:46:29.131Z,27.92
2023-02-17T05:49:01.557Z,30.58
2023-02-17T05:51:34.260Z,28.00
2023-02-17T05:54:06.765Z,29.38
2023-02-17T05:56:39.764Z,29.75
2023-02-17T05:59:12.178Z,28.70
2023-02-17T06:01:44.841Z,29.80
2023-02-17T06:04:20.361Z,31.13
2023-02-17T06:06:53.101Z,28.30
2023-02-17T06:09:25.565Z,30.05
2023-02-17T06:11:58.324Z,30.08
2023-02-17T06:14:33.525Z,28.40
2023-02-17T06:17:06.251Z,28.80
2023-02-17T06:20:08.494Z,28.02
2023-02-17T06:22:42.317Z,29.23
2023-02-17T06:25:17.472Z,29.25
2023-02-17T06:27:50.118Z,27.52
2023-02-17T06:30:23.296Z,28.13
2023-02-17T06:32:56.068Z,30.67
2023-02-17T06:35:28.412Z,28.98
2023-02-17T06:38:01.204Z,27.38
2023-02-17T06:40:33.584Z,27.15
2023-02-17T06:43:07.086Z,28.55
2023-02-17T06:45:39.658Z,27.13
2023-02-17T06:48:12.614Z,28.92
2023-02-17T06:50:44.990Z,26.63
2023-02-17T06:53:17.688Z,26.90
2023-02-17T06:55:50.107Z,25.58
2023-02-17T06:58:22.841Z,26.85
2023-02-17T07:00:55.312Z,25.10
2023-02-17T07:03:28.041Z,28.58
2023-02-17T07:06:00.830Z,27.65
2023-02-17T07:08:34.186Z,28.02
2023-02-17T07:11:08.008Z,26.60
2023-02-17T07:13:41.436Z,28.27
2023-02-17T07:16:15.202Z,27.27
2023-02-17T07:18:47.947Z,27.92
2023-02-17T07:21:20.321Z,27.45
2023-02-17T07:23:52.977Z,26.20
2023-02-17T07:26:25.377Z,26.38
2023-02-17T07:28:58.125Z,25.55
2023-02-17T07:31:30.748Z,27.70
2023-02-17T07:34:04.763Z,25.90
2023-02-17T07:36:37.137Z,27.17
2023-02-17T07:39:09.837Z,25.17
2023-02-17T07:41:42.287Z,27.48
2023-02-17T07:44:15.015Z,28.02
2023-02-17T07:46:47.422Z,27.75
2023-02-17T07:49:20.070Z,27.00
2023-02-17T07:51:52.458Z,26.15
2023-02-17T07:54:25.077Z,26.25
2023-02-17T07:56:57.441Z,26.70
2023-02-17T07:59:30.137Z,25.45
2023-02-17T08:02:02.634Z,26.30
2023-02-17T08:04:35.461Z,27.85
2023-02-17T08:07:07.890Z,25.90
2023-02-17T08:09:59.381Z,26.00
2023-02-17T08:13:09.955Z,26.33
2023-02-17T08:15:42.662Z,24.10
2023-02-17T08:18:15.093Z,24.85
2023-02-17T08:20:47.772Z,26.85
2023-02-17T08:23:21.369Z,26.90
2023-02-17T08:25:57.853Z,26.55
2023-02-17T08:28:30.356Z,25.77
2023-02-17T08:31:03.205Z,26.55
2023-02-17T08:33:35.670Z,28.80
2023-02-17T08:36:09.096Z,27.48
2023-02-17T08:38:41.598Z,28.52
2023-02-17T08:41:24.640Z,28.50
2023-02-17T08:43:58.545Z,28.38
2023-02-17T08:46:31.416Z,26.60
2023-02-17T08:49:05.170Z,27.42
2023-02-17T08:51:37.905Z,27.50
2023-02-17T08:54:11.095Z,28.58
2023-02-17T08:56:44.248Z,28.88
2023-02-17T08:59:16.908Z,27.95
2023-02-17T09:01:49.607Z,27.38
2023-02-17T09:04:22.148Z,26.80
2023-02-17T09:06:58.601Z,27.95
2023-02-17T09:09:31.687Z,27.92
2023-02-17T09:12:04.840Z,28.38
2023-02-17T09:14:37.285Z,28.20
2023-02-17T09:17:10.541Z,28.88
2023-02-17T09:19:43.005Z,31.17
2023-02-17T09:22:30.694Z,31.00
2023-02-17T09:25:05.219Z,31.10
2023-02-17T09:27:37.929Z,28.50
2023-02-17T09:30:10.959Z,31.95
2023-02-17T09:32:44.183Z,30.05
2023-02-17T09:35:17.665Z,30.83
2023-02-17T09:37:50.359Z,32.35
2023-02-17T09:40:32.374Z,31.52
2023-02-17T09:43:05.183Z,28.35
2023-02-17T09:45:37.853Z,29.45
2023-02-17T09:48:15.595Z,29.88
2023-02-17T09:50:53.787Z,29.92
2023-02-17T09:53:41.159Z,29.58
2023-02-17T09:56:20.354Z,31.00
2023-02-17T09:58:55.934Z,29.87
2023-02-17T10:01:33.784Z,29.15
2023-02-17T10:04:16.032Z,29.63
2023-02-17T10:07:14.691Z,29.27
2023-02-17T10:09:49.971Z,29.52
2023-02-17T10:12:27.406Z,30.92
2023-02-17T10:15:06.829Z,28.70
2023-02-17T10:18:01.887Z,28.98
2023-02-17T10:20:51.023Z,27.55
2023-02-17T10:23:26.222Z,29.25
2023-02-17T10:26:36.471Z,29.02
2023-02-17T10:29:43.140Z,29.35
2023-02-17T10:32:23.133Z,30.08
2023-02-17T10:35:17.992Z,30.67
2023-02-17T10:38:05.367Z,31.52
2023-02-17T10:40:37.977Z,29.45
2023-02-17T10:43:13.337Z,31.38
2023-02-17T10:45:51.169Z,30.13
2023-02-17T10:48:33.033Z,29.60
2023-02-17T10:51:06.183Z,30.73
2023-02-17T10:53:40.609Z,30.15
2023-02-17T10:56:15.867Z,31.55
2023-02-17T10:59:06.385Z,29.75
2023-02-17T11:01:39.204Z,28.85
2023-02-17T11:04:13.928Z,30.65
2023-02-17T11:06:52.368Z,30.48
2023-02-17T11:09:32.779Z,31.33
2023-02-17T11:12:13.335Z,30.15
2023-02-17T11:14:48.585Z,30.83
2023-02-17T11:17:30.896Z,30.55
2023-02-17T11:20:27.189Z,28.60
2023-02-17T11:23:23.619Z,28.52
2023-02-17T11:26:07.928Z,27.13
2023-02-17T11:28:40.533Z,29.70
2023-02-17T11:31:28.207Z,30.27
2023-02-17T11:34:11.514Z,27.52
2023-02-17T11:36:46.365Z,27.95
2023-02-17T11:39:23.477Z,29.60
2023-02-17T11:41:57.638Z,29.30
2023-02-17T11:44:30.086Z,29.63
2023-02-17T11:47:33.697Z,28.17
2023-02-17T11:50:41.776Z,26.90
2023-02-17T11:53:36.175Z,26.88
2023-02-17T11:56:17.282Z,27.70
2023-02-17T11:59:10.171Z,27.58
2023-02-17T12:01:57.259Z,27.10
2023-02-17T12:04:38.638Z,27.73
2023-02-17T12:07:28.746Z,25.92
2023-02-17T12:12:57.761Z,26.30
2023-02-17T12:16:02.812Z,26.63
2023-02-17T12:18:58.627Z,26.00
2023-02-17T12:21:39.065Z,24.42
2023-02-17T12:24:34.955Z,26.55
2023-02-17T12:27:25.108Z,26.63
2023-02-17T12:30:23.265Z,26.08
2023-02-17T12:33:01.737Z,25.83
2023-02-17T12:35:54.874Z,27.20
2023-02-17T12:38:51.006Z,26.50
2023-02-17T12:41:47.207Z,26.70
2023-02-17T12:44:30.230Z,26.55
2023-02-17T12:47:32.478Z,26.45
2023-02-17T12:50:20.117Z,25.92
2023-02-17T12:53:01.590Z,25.52
2023-02-17T12:56:00.282Z,24.33
2023-02-17T12:58:33.683Z,25.73
2023-02-17T13:01:14.482Z,26.50
2023-02-17T13:03:46.988Z,23.85
2023-02-17T13:06:39.763Z,23.90
2023-02-17T13:09:15.247Z,24.00
2023-02-17T13:11:48.511Z,24.50
2023-02-17T13:14:23.763Z,26.23
2023-02-17T13:16:56.481Z,24.10
2023-02-17T13:19:31.748Z,22.65
2023-02-17T13:22:05.674Z,25.45
2023-02-17T13:24:50.894Z,21.10
2023-02-17T13:27:30.170Z,21.92
2023-02-17T13:34:36.172Z,20.48
2023-02-17T13:37:19.798Z,21.05
2023-02-17T13:39:52.515Z,19.42
2023-02-17T13:42:41.070Z,21.88
2023-02-17T13:46:06.559Z,22.20
2023-02-17T13:49:06.683Z,22.35
2023-02-17T13:51:39.445Z,22.53
2023-02-17T13:54:12.770Z,23.83
2023-02-17T13:56:51.716Z,23.25
2023-02-17T13:59:26.741Z,23.80
2023-02-17T14:02:00.014Z,23.35
2023-02-17T14:04:32.627Z,22.75
2023-02-17T14:07:05.606Z,21.92
2023-02-17T14:09:38.214Z,22.20
2023-02-17T14:12:23.524Z,20.77
2023-02-17T14:14:56.001Z,19.88
2023-02-17T14:17:32.824Z,20.42
2023-02-17T14:20:06.206Z,20.02
2023-02-17T14:22:38.985Z,20.80
2023-02-17T14:25:26.177Z,19.70
2023-02-17T14:27:59.026Z,19.08
2023-02-17T14:30:31.742Z,18.38
2023-02-17T14:33:16.731Z,18.77
2023-02-17T14:36:06.031Z,18.27
2023-02-17T14:38:42.234Z,17.50
2023-02-17T14:41:14.619Z,19.25
2023-02-17T14:43:47.359Z,17.92
2023-02-17T14:46:20.027Z,17.10
2023-02-17T14:48:53.058Z,16.00
2023-02-17T14:51:31.654Z,18.83
2023-02-17T14:54:15.109Z,18.17
2023-02-17T14:57:04.979Z,17.08
2023-02-17T14:59:39.785Z,16.02
2023-02-17T15:02:18.871Z,16.35
2023-02-17T15:04:51.560Z,16.57
2023-02-17T15:07:24.103Z,16.38
2023-02-17T15:09:56.758Z,17.02
2023-02-17T15:12:29.374Z,17.00
2023-02-17T15:15:02.080Z,18.20
2023-02-17T15:17:34.506Z,16.70
2023-02-17T15:20:10.216Z,17.42
2023-02-17T15:22:44.340Z,17.77
2023-02-17T15:25:24.343Z,16.42
2023-02-17T15:27:56.897Z,16.65
2023-02-17T15:30:29.730Z,17.60
2023-02-17T15:33:02.794Z,17.35
2023-02-17T15:35:35.517Z,17.33
2023-02-17T15:38:12.840Z,17.80
2023-02-17T15:40:45.761Z,16.55
2023-02-17T15:43:21.861Z,17.98
2023-02-17T15:45:54.630Z,17.98
2023-02-17T15:48:32.058Z,17.52
2023-02-17T15:51:04.996Z,18.30
2023-02-17T15:53:37.490Z,18.67
2023-02-17T15:56:20.570Z,19.27
2023-02-17T15:58:54.501Z,18.00
2023-02-17T16:01:33.065Z,19.33
2023-02-17T16:04:06.688Z,17.17
2023-02-17T16:06:39.476Z,17.73
2023-02-17T16:09:12.366Z,18.48
2023-02-17T16:11:51.490Z,19.10
2023-02-17T16:14:34.060Z,18.08
2023-02-17T16:17:13.685Z,19.08
2023-02-17T16:19:46.354Z,16.33
2023-02-17T16:22:19.182Z,15.63
2023-02-17T16:24:51.700Z,17.70
2023-02-17T16:27:25.173Z,18.30
2023-02-17T16:29:57.954Z,18.83
2023-02-17T16:32:33.229Z,16.52
2023-02-17T16:35:07.261Z,16.75
2023-02-17T16:37:40.182Z,17.50
2023-02-17T16:40:17.731Z,16.67
2023-02-17T16:42:50.622Z,18.38
2023-02-17T16:45:26.202Z,18.48
2023-02-17T16:48:00.792Z,18.35
2023-02-17T16:50:35.370Z,16.33
2023-02-17T16:53:11.268Z,15.25
2023-02-17T16:55:44.269Z,15.88
2023-02-17T16:58:20.071Z,16.40
2023-02-17T17:00:54.336Z,15.38
2023-02-17T17:03:27.436Z,16.13
2023-02-17T17:06:01.787Z,14.80
2023-02-17T17:08:34.654Z,15.07
2023-02-17T17:11:07.040Z,12.80
2023-02-17T17:13:39.715Z,13.68
2023-02-17T17:16:19.089Z,13.60
2023-02-17T17:18:51.802Z,13.13
2023-02-17T17:21:24.838Z,13.52
2023-02-17T17:23:57.831Z,13.43
2023-02-17T17:26:45.722Z,12.70
2023-02-17T17:29:20.083Z,13.65
2023-02-17T17:31:52.511Z,14.30
2023-02-17T17:34:25.205Z,15.25
2023-02-17T17:36:57.677Z,12.80
2023-02-17T17:39:30.485Z,14.05
2023-02-17T17:42:02.839Z,14.93
2023-02-17T17:44:35.480Z,16.42
2023-02-17T17:47:21.348Z,15.70
2023-02-17T17:50:00.988Z,12.93
2023-02-17T17:52:33.404Z,15.85
2023-02-17T17:55:06.422Z,13.65
2023-02-17T17:57:39.475Z,15.02
2023-02-17T18:00:15.611Z,15.02
2023-02-17T18:02:48.055Z,13.80
2023-02-17T18:05:20.776Z,15.70
2023-02-17T18:07:53.459Z,15.07
2023-02-17T18:10:26.131Z,15.25
2023-02-17T18:12:59.171Z,14.40
2023-02-17T18:15:31.922Z,15.55
2023-02-17T18:18:04.417Z,11.73
2023-02-17T18:20:37.093Z,14.27
2023-02-17T18:23:09.492Z,13.48
2023-02-17T18:25:42.132Z,14.40
2023-02-17T18:28:14.480Z,14.27
2023-02-17T18:30:47.373Z,12.77
2023-02-17T18:33:19.759Z,15.27
2023-02-17T18:35:52.400Z,14.88
2023-02-17T18:38:24.725Z,14.02
2023-02-17T18:40:57.500Z,14.80
2023-02-17T18:43:29.890Z,13.38
2023-02-17T18:46:02.690Z,14.15
2023-02-17T18:48:35.241Z,12.52
2023-02-17T18:51:09.530Z,13.95
2023-02-17T18:53:42.507Z,13.55
2023-02-17T18:56:22.454Z,12.40
2023-02-17T18:58:55.683Z,9.90
2023-02-17T19:01:32.028Z,13.02
2023-02-17T19:04:04.992Z,10.50
2023-02-17T19:06:37.658Z,11.00
2023-02-17T19:09:10.421Z,9.38
2023-02-17T19:11:43.569Z,8.85
2023-02-17T19:14:16.063Z,11.63
2023-02-17T19:16:48.826Z,11.07
2023-02-17T19:19:21.302Z,11.40
2023-02-17T19:21:54.816Z,10.65
2023-02-17T19:24:27.252Z,10.02
2023-02-17T19:26:59.992Z,10.32
2023-02-17T19:29:32.677Z,6.35
2023-02-17T19:32:16.258Z,6.75
2023-02-17T19:34:48.785Z,5.78
2023-02-17T19:37:21.484Z,5.28
2023-02-17T19:39:54.161Z,3.60
2023-02-17T19:42:26.979Z,4.72
2023-02-17T19:44:59.365Z,2.72
2023-02-17T19:47:32.129Z,2.65
2023-02-17T19:50:05.113Z,2.83
2023-02-17T19:52:38.359Z,2.53
2023-02-17T19:55:10.769Z,3.92
2023-02-17T19:57:43.532Z,2.35
2023-02-17T20:00:16.181Z,2.03
2023-02-17T20:02:48.875Z,2.42
2023-02-17T20:05:24.199Z,1.60
2023-02-17T20:07:57.524Z,2.20
2023-02-17T20:10:30.013Z,2.28
2023-02-17T20:13:03.056Z,1.30
2023-02-17T20:15:35.512Z,1.60
2023-02-17T20:18:08.184Z,1.70
2023-02-17T20:20:41.152Z,3.28
2023-02-17T20:23:13.882Z,1.65
2023-02-17T20:25:46.356Z,2.63
2023-02-17T20:28:19.486Z,2.35
2023-02-17T20:30:51.899Z,2.08
2023-02-17T20:33:24.626Z,2.15
2023-02-17T20:35:57.009Z,3.08
2023-02-17T20:38:31.171Z,1.88
2023-02-17T20:41:05.142Z,1.90
2023-02-17T20:43:38.575Z,2.20
2023-02-17T20:46:28.569Z,2.80
2023-02-17T20:51:33.686Z,1.00
2023-02-17T20:54:06.655Z,0.95
2023-02-17T20:56:41.698Z,2.60
2023-02-17T20:59:17.577Z,1.33
2023-02-17T21:01:52.279Z,1.80
2023-02-17T21:04:37.107Z,1.75
2023-02-17T21:07:10.955Z,1.75
2023-02-17T21:09:43.708Z,1.75
2023-02-17T21:12:16.396Z,1.30
2023-02-17T21:14:49.193Z,1.52
2023-02-17T21:17:21.740Z,1.25
2023-02-17T21:19:54.455Z,1.95
2023-02-17T21:22:26.872Z,1.65
2023-02-17T21:24:59.842Z,1.30
2023-02-17T21:27:32.863Z,2.30
2023-02-17T21:30:10.335Z,1.75
2023-02-17T21:32:42.981Z,1.40
2023-02-17T21:35:15.864Z,2.33
2023-02-17T21:37:50.195Z,1.45
2023-02-17T21:40:22.910Z,1.48
2023-02-17T21:43:13.953Z,1.08
2023-02-17T21:45:47.137Z,2.58
2023-02-17T21:48:19.594Z,1.58
2023-02-17T21:50:52.252Z,1.48
2023-02-17T21:53:24.696Z,2.78
2023-02-17T21:55:57.527Z,1.17
2023-02-17T21:58:30.759Z,1.42
2023-02-17T22:01:06.272Z,1.38
2023-02-17T22:03:38.818Z,1.65
2023-02-17T22:06:22.316Z,1.75
2023-02-17T22:08:56.096Z,2.03
2023-02-17T22:11:33.451Z,2.28
2023-02-17T22:14:10.297Z,3.35
2023-02-17T22:16:43.847Z,3.45
2023-02-17T22:19:22.781Z,2.22
2023-02-17T22:21:55.676Z,2.25
2023-02-17T22:24:28.218Z,1.80
2023-02-17T22:27:01.046Z,1.95
2023-02-17T22:29:33.485Z,1.75
2023-02-17T22:32:06.378Z,2.45
2023-02-17T22:34:39.176Z,2.75
2023-02-17T22:37:19.201Z,2.08
2023-02-17T22:39:56.325Z,2.08
2023-02-17T22:42:29.059Z,1.63
2023-02-17T22:45:01.481Z,2.15
2023-02-17T22:47:34.276Z,2.75
2023-02-17T22:50:06.906Z,3.60
2023-02-17T22:52:39.905Z,1.83
2023-02-17T22:55:12.402Z,2.22
2023-02-17T22:57:47.374Z,1.70
2023-02-17T23:00:19.884Z,2.88
2023-02-17T23:02:52.618Z,1.73
2023-02-17T23:05:25.369Z,2.67
2023-02-17T23:07:58.302Z,2.53
2023-02-17T23:10:30.832Z,0.98
2023-02-17T23:13:03.616Z,1.23
2023-02-17T23:15:43.150Z,2.00
2023-02-17T23:18:19.077Z,2.67
2023-02-17T23:20:57.587Z,2.17
2023-02-17T23:23:30.460Z,2.03
2023-02-17T23:26:03.847Z,1.50
2023-02-17T23:28:36.662Z,3.97
2023-02-17T23:31:12.351Z,0.55
2023-02-17T23:33:45.242Z,1.30
2023-02-17T23:36:17.765Z,1.73
2023-02-17T23:38:52.717Z,1.58
2023-02-17T23:41:25.996Z,2.75
2023-02-17T23:43:58.735Z,1.95
2023-02-17T23:46:31.241Z,1.13
2023-02-17T23:49:04.090Z,2.15
2023-02-17T23:51:36.573Z,1.83
2023-02-17T23:54:09.538Z,1.48
2023-02-17T23:56:42.484Z,3.42
2023-02-17T23:59:15.331Z,2.72
